»·PEaware :: NWA781 KPDX-KMSO

NWA781 :: KPDX-KMSO

FLIGHT INFORMATION

Flight Status: Arrived
Operator:
Northwest Airlines
More flights by this operator :: More flights under this callsign
Pilot: Anonymous 14167 (14167)
Aircraft: BOEING 727-200
(B722)
More flights by this aircraft type
Origin: KPDX Portland Intl
United States
Destination: KMSO Missoula Intl
United States
More flights between these airports :: More routes between these airports
Route: LAVAA6 LAVAA PSC MSO
File this flight plan on PilotEdge
Remarks:
Altitude:
(Current/Filed)
33,000ft
Speed:
(Current/Filed)
480kts
Departed: 29-Sep-18 05:54 PM
Arrived: 29-Sep-18 06:52 PM
Distance/Time
Traveled:
362nm/0:58
Distance/Time
To Go:
Arrived

Flight Plot

Page will automatically refresh every two minutes.

Flight plan parsing failed; only flown route is shown


Map Options




Map Legend


Flown Route
Filed Route
Departure Airport
Arrival Airport
Navaid (VOR, NDB)
Fix

Horizontal Profiles

Position Reports

Time Latitude Longitude Heading Altitude Ground
Speed
29-Sep-18 17:33 45.591184 -122.594042 209 40ft 0kts
29-Sep-18 17:34 45.591184 -122.594042 209 40ft 0kts
29-Sep-18 17:35 45.591184 -122.594042 209 40ft 0kts
29-Sep-18 17:36 45.591184 -122.594042 209 40ft 0kts
29-Sep-18 17:37 45.591184 -122.594042 209 40ft 0kts
29-Sep-18 17:38 45.591184 -122.594042 209 40ft 0kts
29-Sep-18 17:39 45.591184 -122.594042 209 40ft 0kts
29-Sep-18 17:40 45.591184 -122.594042 209 40ft 0kts
29-Sep-18 17:41 45.591184 -122.594042 209 40ft 0kts
29-Sep-18 17:42 45.591184 -122.594042 209 40ft 0kts
29-Sep-18 17:43 45.591184 -122.594042 209 40ft 0kts
29-Sep-18 17:44 45.591184 -122.594042 209 40ft 0kts
29-Sep-18 17:45 45.591184 -122.594042 209 40ft 0kts
29-Sep-18 17:46 45.591184 -122.594042 209 41ft 0kts
29-Sep-18 17:47 45.591184 -122.594042 209 41ft 0kts
29-Sep-18 17:48 45.591503 -122.593789 209 40ft 2kts
29-Sep-18 17:49 45.591774 -122.593191 297 40ft 0kts
29-Sep-18 17:50 45.591733 -122.593101 299 40ft 0kts
29-Sep-18 17:51 45.591733 -122.593101 299 40ft 0kts
29-Sep-18 17:52 45.593290 -122.597086 298 40ft 20kts
29-Sep-18 17:53 45.595023 -122.600852 3 40ft 4kts
29-Sep-18 17:54 45.595709 -122.600477 26 41ft 8kts
29-Sep-18 17:55 45.596158 -122.599141 116 40ft 0kts
29-Sep-18 17:56 45.593666 -122.592728 118 41ft 99kts
29-Sep-18 17:57 45.576937 -122.534004 99 1543ft 191kts
29-Sep-18 17:58 45.564976 -122.455148 97 4423ft 227kts
29-Sep-18 17:59 45.582270 -122.358652 61 7155ft 283kts
29-Sep-18 18:00 45.622087 -122.260715 65 10082ft 299kts
29-Sep-18 18:01 45.657460 -122.151908 67 12789ft 307kts
29-Sep-18 18:02 45.692370 -122.037149 68 14513ft 341kts
29-Sep-18 18:03 45.730639 -121.909426 68 16700ft 354kts
29-Sep-18 18:04 45.763054 -121.774570 75 18596ft 366kts
29-Sep-18 18:05 45.792237 -121.632067 75 20375ft 378kts
29-Sep-18 18:06 45.821659 -121.486415 75 22065ft 386kts
29-Sep-18 18:07 45.851283 -121.338683 76 23557ft 393kts
29-Sep-18 18:08 45.881591 -121.186653 77 24688ft 405kts
29-Sep-18 18:09 45.912621 -121.029222 76 25706ft 415kts
29-Sep-18 18:10 45.944138 -120.868275 76 26706ft 422kts
29-Sep-18 18:11 45.975798 -120.705399 77 27516ft 431kts
29-Sep-18 18:12 46.008179 -120.537087 77 28286ft 439kts
29-Sep-18 18:13 46.041316 -120.363338 77 28413ft 463kts
29-Sep-18 18:14 46.075699 -120.181615 77 28468ft 485kts
29-Sep-18 18:15 46.110321 -119.996613 77 29314ft 485kts
29-Sep-18 18:16 46.144957 -119.809735 77 30145ft 483kts
29-Sep-18 18:17 46.179397 -119.622034 78 30726ft 487kts
29-Sep-18 18:18 46.212869 -119.437788 78 32130ft 468kts
29-Sep-18 18:19 46.244624 -119.261147 78 32858ft 464kts
29-Sep-18 18:20 46.276121 -119.077829 80 32856ft 476kts
29-Sep-18 18:21 46.304197 -118.889841 80 32856ft 489kts
29-Sep-18 18:22 46.332884 -118.695118 80 32852ft 501kts
29-Sep-18 18:23 46.361735 -118.496509 80 32812ft 513kts
29-Sep-18 18:24 46.390233 -118.297914 81 32805ft 519kts
29-Sep-18 18:25 46.419098 -118.094024 81 32806ft 517kts
29-Sep-18 18:26 46.447518 -117.890457 81 32807ft 516kts
29-Sep-18 18:27 46.475539 -117.686946 81 32849ft 514kts
29-Sep-18 18:28 46.503143 -117.483688 81 32847ft 518kts
29-Sep-18 18:29 46.530537 -117.279143 82 32825ft 521kts
29-Sep-18 18:30 46.557396 -117.075561 82 31837ft 516kts
29-Sep-18 18:31 46.584146 -116.869917 82 30490ft 519kts
29-Sep-18 18:32 46.610621 -116.663086 81 28897ft 525kts
29-Sep-18 18:33 46.636998 -116.454264 81 27395ft 526kts
29-Sep-18 18:34 46.662096 -116.252422 82 26298ft 507kts
29-Sep-18 18:35 46.686483 -116.053278 81 25012ft 489kts
29-Sep-18 18:36 46.709826 -115.859783 81 23504ft 472kts
29-Sep-18 18:37 46.731503 -115.677279 81 22025ft 455kts
29-Sep-18 18:38 46.752441 -115.498774 81 20393ft 443kts
29-Sep-18 18:39 46.772554 -115.324719 81 18684ft 434kts
29-Sep-18 18:40 46.802865 -115.158538 52 16963ft 421kts
29-Sep-18 18:41 46.864567 -115.026808 53 15544ft 383kts
29-Sep-18 18:42 46.931468 -114.914581 41 14917ft 345kts
29-Sep-18 18:43 46.998163 -114.816094 41 13787ft 337kts
29-Sep-18 18:44 47.061620 -114.721871 43 11982ft 315kts
29-Sep-18 18:45 47.120189 -114.634450 44 11107ft 302kts
29-Sep-18 18:46 47.159981 -114.539285 103 10021ft 270kts
29-Sep-18 18:47 47.125561 -114.453774 121 9441ft 243kts
29-Sep-18 18:48 47.081391 -114.375471 131 7998ft 252kts
29-Sep-18 18:49 47.037970 -114.300741 130 6827ft 222kts
29-Sep-18 18:50 47.003175 -114.239947 129 5531ft 160kts
29-Sep-18 18:51 46.976343 -114.195880 126 4590ft 137kts
29-Sep-18 18:52 46.951182 -114.151962 126 3955ft 136kts
29-Sep-18 18:53 46.927186 -114.110575 127 3331ft 130kts
29-Sep-18 18:54 46.912698 -114.085633 107 3217ft 14kts
29-Sep-18 18:55 46.914148 -114.083199 40 3217ft 8kts
29-Sep-18 18:56 46.916208 -114.082472 311 3217ft 8kts
29-Sep-18 18:57 46.917818 -114.085217 311 3217ft 8kts
29-Sep-18 18:58 46.918888 -114.085193 100 3217ft 0kts
29-Sep-18 18:59 46.918888 -114.085193 100 3217ft 0kts
29-Sep-18 19:00 46.918888 -114.085193 100 3217ft 0kts
29-Sep-18 19:01 46.918888 -114.085193 100 3217ft 0kts
29-Sep-18 19:02 46.918888 -114.085193 100 3217ft 0kts

Navigation Log

Ident Type
Flight plan parsing failed, navigation log unavailable